sensor_id;sensor_type;location;lat;lon;timestamp;P1;P2;P0
47705;PMS5003;33471;52.104;1.318;2023-05-10T00:01:15;7;6;
47705;PMS5003;33471;52.104;1.318;2023-05-10T00:03:42;4;4;
47705;PMS5003;33471;52.104;1.318;2023-05-10T00:06:10;14;11;
47705;PMS5003;33471;52.104;1.318;2023-05-10T00:08:37;7;7;
47705;PMS5003;33471;52.104;1.318;2023-05-10T00:11:04;4;4;
47705;PMS5003;33471;52.104;1.318;2023-05-10T00:13:31;8;8;
47705;PMS5003;33471;52.104;1.318;2023-05-10T00:15:59;6;6;
47705;PMS5003;33471;52.104;1.318;2023-05-10T00:18:25;6;5;
47705;PMS5003;33471;52.104;1.318;2023-05-10T00:20:53;7;6;
47705;PMS5003;33471;52.104;1.318;2023-05-10T00:23:20;6;5;
47705;PMS5003;33471;52.104;1.318;2023-05-10T00:25:47;5;5;
47705;PMS5003;33471;52.104;1.318;2023-05-10T00:28:15;11;11;
47705;PMS5003;33471;52.104;1.318;2023-05-10T00:30:51;4;4;
47705;PMS5003;33471;52.104;1.318;2023-05-10T00:33:48;5;5;
47705;PMS5003;33471;52.104;1.318;2023-05-10T00:36:16;8;6;
47705;PMS5003;33471;52.104;1.318;2023-05-10T00:38:45;7;5;
47705;PMS5003;33471;52.104;1.318;2023-05-10T00:41:12;7;6;
47705;PMS5003;33471;52.104;1.318;2023-05-10T00:43:39;5;5;
47705;PMS5003;33471;52.104;1.318;2023-05-10T00:46:31;6;5;
47705;PMS5003;33471;52.104;1.318;2023-05-10T00:48:58;7;5;
47705;PMS5003;33471;52.104;1.318;2023-05-10T00:51:26;7;7;
47705;PMS5003;33471;52.104;1.318;2023-05-10T00:53:54;5;5;
47705;PMS5003;33471;52.104;1.318;2023-05-10T00:56:22;6;6;
47705;PMS5003;33471;52.104;1.318;2023-05-10T00:58:49;8;7;
47705;PMS5003;33471;52.104;1.318;2023-05-10T01:01:16;11;11;
47705;PMS5003;33471;52.104;1.318;2023-05-10T01:03:44;7;7;
47705;PMS5003;33471;52.104;1.318;2023-05-10T01:06:12;9;8;
47705;PMS5003;33471;52.104;1.318;2023-05-10T01:08:39;8;7;
47705;PMS5003;33471;52.104;1.318;2023-05-10T01:11:07;11;11;
47705;PMS5003;33471;52.104;1.318;2023-05-10T01:13:34;9;9;
47705;PMS5003;33471;52.104;1.318;2023-05-10T01:16:04;9;7;
47705;PMS5003;33471;52.104;1.318;2023-05-10T01:18:32;9;9;
47705;PMS5003;33471;52.104;1.318;2023-05-10T01:21:04;13;12;
47705;PMS5003;33471;52.104;1.318;2023-05-10T01:23:45;6;6;
47705;PMS5003;33471;52.104;1.318;2023-05-10T01:26:48;9;8;
47705;PMS5003;33471;52.104;1.318;2023-05-10T01:27:38;9;8;
47705;PMS5003;33471;52.104;1.318;2023-05-10T01:30:32;9;9;
47705;PMS5003;33471;52.104;1.318;2023-05-10T01:33:09;8;8;
47705;PMS5003;33471;52.104;1.318;2023-05-10T01:35:46;8;8;
47705;PMS5003;33471;52.104;1.318;2023-05-10T01:38:20;8;6;
47705;PMS5003;33471;52.104;1.318;2023-05-10T01:40:59;8;6;
47705;PMS5003;33471;52.104;1.318;2023-05-10T01:43:36;9;9;
47705;PMS5003;33471;52.104;1.318;2023-05-10T01:46:10;6;6;
47705;PMS5003;33471;52.104;1.318;2023-05-10T01:49:17;12;10;
47705;PMS5003;33471;52.104;1.318;2023-05-10T01:51:51;10;10;
47705;PMS5003;33471;52.104;1.318;2023-05-10T01:54:20;6;6;
47705;PMS5003;33471;52.104;1.318;2023-05-10T01:57:01;7;7;
47705;PMS5003;33471;52.104;1.318;2023-05-10T01:59:33;8;8;
47705;PMS5003;33471;52.104;1.318;2023-05-10T02:02:01;8;7;
47705;PMS5003;33471;52.104;1.318;2023-05-10T02:04:30;6;6;
47705;PMS5003;33471;52.104;1.318;2023-05-10T02:06:59;11;11;
47705;PMS5003;33471;52.104;1.318;2023-05-10T02:09:27;7;7;
47705;PMS5003;33471;52.104;1.318;2023-05-10T02:11:56;11;8;
47705;PMS5003;33471;52.104;1.318;2023-05-10T02:14:26;8;8;
47705;PMS5003;33471;52.104;1.318;2023-05-10T02:16:53;7;7;
47705;PMS5003;33471;52.104;1.318;2023-05-10T02:19:23;6;6;
47705;PMS5003;33471;52.104;1.318;2023-05-10T02:21:51;9;9;
47705;PMS5003;33471;52.104;1.318;2023-05-10T02:24:19;6;6;
47705;PMS5003;33471;52.104;1.318;2023-05-10T02:26:48;10;8;
47705;PMS5003;33471;52.104;1.318;2023-05-10T02:29:18;8;8;
47705;PMS5003;33471;52.104;1.318;2023-05-10T02:31:46;9;8;
47705;PMS5003;33471;52.104;1.318;2023-05-10T02:34:14;8;8;
47705;PMS5003;33471;52.104;1.318;2023-05-10T02:36:42;10;10;
47705;PMS5003;33471;52.104;1.318;2023-05-10T02:39:10;9;8;
47705;PMS5003;33471;52.104;1.318;2023-05-10T02:41:40;9;9;
47705;PMS5003;33471;52.104;1.318;2023-05-10T02:44:08;11;9;
47705;PMS5003;33471;52.104;1.318;2023-05-10T02:46:37;9;8;
47705;PMS5003;33471;52.104;1.318;2023-05-10T02:49:05;7;7;
47705;PMS5003;33471;52.104;1.318;2023-05-10T02:51:32;7;7;
47705;PMS5003;33471;52.104;1.318;2023-05-10T02:54:14;9;9;
47705;PMS5003;33471;52.104;1.318;2023-05-10T02:56:51;11;10;
47705;PMS5003;33471;52.104;1.318;2023-05-10T02:59:23;10;10;
47705;PMS5003;33471;52.104;1.318;2023-05-10T03:01:50;12;9;
47705;PMS5003;33471;52.104;1.318;2023-05-10T03:04:17;6;6;
47705;PMS5003;33471;52.104;1.318;2023-05-10T03:06:44;14;12;
47705;PMS5003;33471;52.104;1.318;2023-05-10T03:09:11;8;7;
47705;PMS5003;33471;52.104;1.318;2023-05-10T03:11:44;9;8;
47705;PMS5003;33471;52.104;1.318;2023-05-10T03:14:23;17;12;
47705;PMS5003;33471;52.104;1.318;2023-05-10T03:17:03;6;6;
47705;PMS5003;33471;52.104;1.318;2023-05-10T03:19:37;14;12;
47705;PMS5003;33471;52.104;1.318;2023-05-10T03:22:11;8;8;
47705;PMS5003;33471;52.104;1.318;2023-05-10T03:24:43;11;11;
47705;PMS5003;33471;52.104;1.318;2023-05-10T03:27:14;8;8;
47705;PMS5003;33471;52.104;1.318;2023-05-10T03:29:41;15;14;
47705;PMS5003;33471;52.104;1.318;2023-05-10T03:32:09;11;11;
47705;PMS5003;33471;52.104;1.318;2023-05-10T03:34:41;11;10;
47705;PMS5003;33471;52.104;1.318;2023-05-10T03:37:08;13;12;
47705;PMS5003;33471;52.104;1.318;2023-05-10T03:39:36;15;15;
47705;PMS5003;33471;52.104;1.318;2023-05-10T03:42:03;10;9;
47705;PMS5003;33471;52.104;1.318;2023-05-10T03:44:30;16;15;
47705;PMS5003;33471;52.104;1.318;2023-05-10T03:46:57;13;12;
47705;PMS5003;33471;52.104;1.318;2023-05-10T03:49:25;10;10;
47705;PMS5003;33471;52.104;1.318;2023-05-10T03:51:51;13;13;
47705;PMS5003;33471;52.104;1.318;2023-05-10T03:54:18;16;15;
47705;PMS5003;33471;52.104;1.318;2023-05-10T03:56:45;11;9;
47705;PMS5003;33471;52.104;1.318;2023-05-10T03:59:12;10;9;
47705;PMS5003;33471;52.104;1.318;2023-05-10T04:01:39;12;12;
47705;PMS5003;33471;52.104;1.318;2023-05-10T04:04:06;18;17;
47705;PMS5003;33471;52.104;1.318;2023-05-10T04:06:33;15;15;
47705;PMS5003;33471;52.104;1.318;2023-05-10T04:09:00;13;12;
47705;PMS5003;33471;52.104;1.318;2023-05-10T04:11:27;14;12;
47705;PMS5003;33471;52.104;1.318;2023-05-10T04:13:54;16;16;
47705;PMS5003;33471;52.104;1.318;2023-05-10T04:16:22;8;8;
47705;PMS5003;33471;52.104;1.318;2023-05-10T04:18:49;15;13;
47705;PMS5003;33471;52.104;1.318;2023-05-10T04:21:16;12;11;
47705;PMS5003;33471;52.104;1.318;2023-05-10T04:23:44;10;9;
47705;PMS5003;33471;52.104;1.318;2023-05-10T04:26:11;14;12;
47705;PMS5003;33471;52.104;1.318;2023-05-10T04:28:39;10;10;
47705;PMS5003;33471;52.104;1.318;2023-05-10T04:31:06;19;14;
47705;PMS5003;33471;52.104;1.318;2023-05-10T04:33:35;13;13;
47705;PMS5003;33471;52.104;1.318;2023-05-10T04:36:04;13;12;
47705;PMS5003;33471;52.104;1.318;2023-05-10T04:38:31;10;10;
47705;PMS5003;33471;52.104;1.318;2023-05-10T04:41:06;11;10;
47705;PMS5003;33471;52.104;1.318;2023-05-10T04:43:35;11;11;
47705;PMS5003;33471;52.104;1.318;2023-05-10T04:46:03;15;15;
47705;PMS5003;33471;52.104;1.318;2023-05-10T04:48:30;8;8;
47705;PMS5003;33471;52.104;1.318;2023-05-10T04:50:57;14;14;
47705;PMS5003;33471;52.104;1.318;2023-05-10T04:53:25;9;9;
47705;PMS5003;33471;52.104;1.318;2023-05-10T04:55:52;9;9;
47705;PMS5003;33471;52.104;1.318;2023-05-10T04:58:19;8;7;
47705;PMS5003;33471;52.104;1.318;2023-05-10T05:00:46;9;9;
47705;PMS5003;33471;52.104;1.318;2023-05-10T05:03:13;15;15;
47705;PMS5003;33471;52.104;1.318;2023-05-10T05:05:40;6;6;
47705;PMS5003;33471;52.104;1.318;2023-05-10T05:08:07;8;8;
47705;PMS5003;33471;52.104;1.318;2023-05-10T05:10:35;12;12;
47705;PMS5003;33471;52.104;1.318;2023-05-10T05:13:01;7;7;
47705;PMS5003;33471;52.104;1.318;2023-05-10T05:15:29;9;8;
47705;PMS5003;33471;52.104;1.318;2023-05-10T05:17:55;7;6;
47705;PMS5003;33471;52.104;1.318;2023-05-10T05:20:22;9;8;
47705;PMS5003;33471;52.104;1.318;2023-05-10T05:22:49;10;10;
47705;PMS5003;33471;52.104;1.318;2023-05-10T05:25:17;11;9;
47705;PMS5003;33471;52.104;1.318;2023-05-10T05:27:44;9;9;
47705;PMS5003;33471;52.104;1.318;2023-05-10T05:30:11;8;8;
47705;PMS5003;33471;52.104;1.318;2023-05-10T05:32:38;11;10;
47705;PMS5003;33471;52.104;1.318;2023-05-10T05:35:14;6;6;
47705;PMS5003;33471;52.104;1.318;2023-05-10T05:37:41;8;8;
47705;PMS5003;33471;52.104;1.318;2023-05-10T05:40:12;12;12;
47705;PMS5003;33471;52.104;1.318;2023-05-10T05:42:39;7;7;
47705;PMS5003;33471;52.104;1.318;2023-05-10T05:45:07;7;6;
47705;PMS5003;33471;52.104;1.318;2023-05-10T05:47:36;11;11;
47705;PMS5003;33471;52.104;1.318;2023-05-10T05:50:03;9;9;
47705;PMS5003;33471;52.104;1.318;2023-05-10T05:52:31;10;9;
47705;PMS5003;33471;52.104;1.318;2023-05-10T05:54:59;9;6;
47705;PMS5003;33471;52.104;1.318;2023-05-10T05:57:26;13;12;
47705;PMS5003;33471;52.104;1.318;2023-05-10T05:59:54;7;7;
47705;PMS5003;33471;52.104;1.318;2023-05-10T06:02:21;12;11;
47705;PMS5003;33471;52.104;1.318;2023-05-10T06:04:47;8;6;
47705;PMS5003;33471;52.104;1.318;2023-05-10T06:07:17;13;12;
47705;PMS5003;33471;52.104;1.318;2023-05-10T06:09:43;7;6;
47705;PMS5003;33471;52.104;1.318;2023-05-10T06:12:11;9;9;
47705;PMS5003;33471;52.104;1.318;2023-05-10T06:14:39;12;10;
47705;PMS5003;33471;52.104;1.318;2023-05-10T06:17:06;8;8;
47705;PMS5003;33471;52.104;1.318;2023-05-10T06:19:32;10;6;
47705;PMS5003;33471;52.104;1.318;2023-05-10T06:21:59;9;9;
47705;PMS5003;33471;52.104;1.318;2023-05-10T06:24:27;6;4;
47705;PMS5003;33471;52.104;1.318;2023-05-10T06:26:54;10;8;
47705;PMS5003;33471;52.104;1.318;2023-05-10T06:29:21;12;11;
47705;PMS5003;33471;52.104;1.318;2023-05-10T06:31:49;7;7;
47705;PMS5003;33471;52.104;1.318;2023-05-10T06:34:16;6;6;
47705;PMS5003;33471;52.104;1.318;2023-05-10T06:36:43;9;9;
47705;PMS5003;33471;52.104;1.318;2023-05-10T06:39:11;13;13;
47705;PMS5003;33471;52.104;1.318;2023-05-10T06:41:38;12;11;
47705;PMS5003;33471;52.104;1.318;2023-05-10T06:44:05;5;4;
47705;PMS5003;33471;52.104;1.318;2023-05-10T06:46:33;12;12;
47705;PMS5003;33471;52.104;1.318;2023-05-10T06:49:00;7;7;
47705;PMS5003;33471;52.104;1.318;2023-05-10T06:51:27;6;6;
47705;PMS5003;33471;52.104;1.318;2023-05-10T06:53:54;8;8;
47705;PMS5003;33471;52.104;1.318;2023-05-10T06:56:21;6;6;
47705;PMS5003;33471;52.104;1.318;2023-05-10T06:58:48;9;7;
47705;PMS5003;33471;52.104;1.318;2023-05-10T07:01:16;8;8;
47705;PMS5003;33471;52.104;1.318;2023-05-10T07:03:43;8;8;
47705;PMS5003;33471;52.104;1.318;2023-05-10T07:06:11;10;8;
47705;PMS5003;33471;52.104;1.318;2023-05-10T07:08:38;8;6;
47705;PMS5003;33471;52.104;1.318;2023-05-10T07:11:06;5;5;
47705;PMS5003;33471;52.104;1.318;2023-05-10T07:13:34;8;7;
47705;PMS5003;33471;52.104;1.318;2023-05-10T07:16:01;7;7;
47705;PMS5003;33471;52.104;1.318;2023-05-10T07:18:29;8;8;
47705;PMS5003;33471;52.104;1.318;2023-05-10T07:20:56;5;5;
47705;PMS5003;33471;52.104;1.318;2023-05-10T07:23:24;8;6;
47705;PMS5003;33471;52.104;1.318;2023-05-10T07:25:51;7;7;
47705;PMS5003;33471;52.104;1.318;2023-05-10T07:28:18;6;6;
47705;PMS5003;33471;52.104;1.318;2023-05-10T07:30:46;5;5;
47705;PMS5003;33471;52.104;1.318;2023-05-10T07:33:14;7;6;
47705;PMS5003;33471;52.104;1.318;2023-05-10T07:35:42;10;9;
47705;PMS5003;33471;52.104;1.318;2023-05-10T07:38:09;11;9;
47705;PMS5003;33471;52.104;1.318;2023-05-10T07:40:36;7;6;
47705;PMS5003;33471;52.104;1.318;2023-05-10T07:43:04;7;6;
47705;PMS5003;33471;52.104;1.318;2023-05-10T07:45:31;6;6;
47705;PMS5003;33471;52.104;1.318;2023-05-10T07:47:58;11;11;
47705;PMS5003;33471;52.104;1.318;2023-05-10T07:50:25;5;5;
47705;PMS5003;33471;52.104;1.318;2023-05-10T07:52:52;9;7;
47705;PMS5003;33471;52.104;1.318;2023-05-10T07:55:20;7;6;
47705;PMS5003;33471;52.104;1.318;2023-05-10T07:57:47;8;8;
47705;PMS5003;33471;52.104;1.318;2023-05-10T08:00:17;7;5;
47705;PMS5003;33471;52.104;1.318;2023-05-10T08:02:45;7;6;
47705;PMS5003;33471;52.104;1.318;2023-05-10T08:05:13;9;9;
47705;PMS5003;33471;52.104;1.318;2023-05-10T08:07:40;9;9;
47705;PMS5003;33471;52.104;1.318;2023-05-10T08:10:08;6;6;
47705;PMS5003;33471;52.104;1.318;2023-05-10T08:12:36;8;6;
47705;PMS5003;33471;52.104;1.318;2023-05-10T08:15:04;8;7;
47705;PMS5003;33471;52.104;1.318;2023-05-10T08:17:32;8;8;
47705;PMS5003;33471;52.104;1.318;2023-05-10T08:19:59;5;5;
47705;PMS5003;33471;52.104;1.318;2023-05-10T08:22:27;9;8;
47705;PMS5003;33471;52.104;1.318;2023-05-10T08:24:54;8;8;
47705;PMS5003;33471;52.104;1.318;2023-05-10T08:27:21;8;7;
47705;PMS5003;33471;52.104;1.318;2023-05-10T08:29:48;9;8;
47705;PMS5003;33471;52.104;1.318;2023-05-10T08:32:15;8;8;
47705;PMS5003;33471;52.104;1.318;2023-05-10T08:34:43;8;8;
47705;PMS5003;33471;52.104;1.318;2023-05-10T08:37:10;8;8;
47705;PMS5003;33471;52.104;1.318;2023-05-10T08:39:37;10;10;
47705;PMS5003;33471;52.104;1.318;2023-05-10T08:42:04;11;9;
47705;PMS5003;33471;52.104;1.318;2023-05-10T08:44:32;8;8;
47705;PMS5003;33471;52.104;1.318;2023-05-10T08:47:02;9;5;
47705;PMS5003;33471;52.104;1.318;2023-05-10T08:49:31;5;5;
47705;PMS5003;33471;52.104;1.318;2023-05-10T08:52:00;7;7;
47705;PMS5003;33471;52.104;1.318;2023-05-10T08:54:29;9;9;
47705;PMS5003;33471;52.104;1.318;2023-05-10T08:56:58;5;5;
47705;PMS5003;33471;52.104;1.318;2023-05-10T08:59:26;7;6;
47705;PMS5003;33471;52.104;1.318;2023-05-10T09:01:54;8;6;
47705;PMS5003;33471;52.104;1.318;2023-05-10T09:04:24;5;5;
47705;PMS5003;33471;52.104;1.318;2023-05-10T09:06:50;8;8;
47705;PMS5003;33471;52.104;1.318;2023-05-10T09:09:18;8;8;
47705;PMS5003;33471;52.104;1.318;2023-05-10T09:11:47;6;5;
47705;PMS5003;33471;52.104;1.318;2023-05-10T09:14:14;11;7;
47705;PMS5003;33471;52.104;1.318;2023-05-10T09:16:42;8;7;
47705;PMS5003;33471;52.104;1.318;2023-05-10T09:19:09;7;7;
47705;PMS5003;33471;52.104;1.318;2023-05-10T09:21:36;8;8;
47705;PMS5003;33471;52.104;1.318;2023-05-10T09:24:03;10;9;
47705;PMS5003;33471;52.104;1.318;2023-05-10T09:26:31;10;8;
47705;PMS5003;33471;52.104;1.318;2023-05-10T09:28:59;8;8;
47705;PMS5003;33471;52.104;1.318;2023-05-10T09:31:43;9;9;
47705;PMS5003;33471;52.104;1.318;2023-05-10T09:34:15;13;12;
47705;PMS5003;33471;52.104;1.318;2023-05-10T09:36:53;13;11;
47705;PMS5003;33471;52.104;1.318;2023-05-10T09:39:29;9;9;
47705;PMS5003;33471;52.104;1.318;2023-05-10T09:41:58;8;7;
47705;PMS5003;33471;52.104;1.318;2023-05-10T09:44:26;15;14;
47705;PMS5003;33471;52.104;1.318;2023-05-10T09:46:54;20;18;
47705;PMS5003;33471;52.104;1.318;2023-05-10T09:49:22;14;14;
47705;PMS5003;33471;52.104;1.318;2023-05-10T09:51:59;19;18;
47705;PMS5003;33471;52.104;1.318;2023-05-10T09:54:28;13;13;
47705;PMS5003;33471;52.104;1.318;2023-05-10T09:56:55;17;17;
47705;PMS5003;33471;52.104;1.318;2023-05-10T09:59:25;13;13;
47705;PMS5003;33471;52.104;1.318;2023-05-10T10:01:53;11;11;
47705;PMS5003;33471;52.104;1.318;2023-05-10T10:04:22;15;15;
47705;PMS5003;33471;52.104;1.318;2023-05-10T10:06:58;16;16;
47705;PMS5003;33471;52.104;1.318;2023-05-10T10:09:26;19;15;
47705;PMS5003;33471;52.104;1.318;2023-05-10T10:11:54;19;19;
47705;PMS5003;33471;52.104;1.318;2023-05-10T10:14:22;12;11;
47705;PMS5003;33471;52.104;1.318;2023-05-10T10:16:50;14;12;
47705;PMS5003;33471;52.104;1.318;2023-05-10T10:19:18;12;10;
47705;PMS5003;33471;52.104;1.318;2023-05-10T10:21:46;11;11;
47705;PMS5003;33471;52.104;1.318;2023-05-10T10:24:13;11;11;
47705;PMS5003;33471;52.104;1.318;2023-05-10T10:26:40;12;11;
47705;PMS5003;33471;52.104;1.318;2023-05-10T10:29:12;10;10;
47705;PMS5003;33471;52.104;1.318;2023-05-10T10:31:49;12;10;
47705;PMS5003;33471;52.104;1.318;2023-05-10T10:34:25;11;11;
47705;PMS5003;33471;52.104;1.318;2023-05-10T10:36:53;10;9;
47705;PMS5003;33471;52.104;1.318;2023-05-10T10:39:22;13;12;
47705;PMS5003;33471;52.104;1.318;2023-05-10T10:41:50;10;10;
47705;PMS5003;33471;52.104;1.318;2023-05-10T10:44:33;13;12;
47705;PMS5003;33471;52.104;1.318;2023-05-10T10:47:04;12;11;
47705;PMS5003;33471;52.104;1.318;2023-05-10T10:49:37;13;12;
47705;PMS5003;33471;52.104;1.318;2023-05-10T10:52:20;7;7;
47705;PMS5003;33471;52.104;1.318;2023-05-10T10:54:50;10;10;
47705;PMS5003;33471;52.104;1.318;2023-05-10T10:57:19;10;10;
47705;PMS5003;33471;52.104;1.318;2023-05-10T10:59:46;9;9;
47705;PMS5003;33471;52.104;1.318;2023-05-10T11:02:32;6;6;
47705;PMS5003;33471;52.104;1.318;2023-05-10T11:05:00;9;7;
47705;PMS5003;33471;52.104;1.318;2023-05-10T11:07:51;8;7;
47705;PMS5003;33471;52.104;1.318;2023-05-10T11:10:19;8;8;
47705;PMS5003;33471;52.104;1.318;2023-05-10T11:12:55;7;7;
47705;PMS5003;33471;52.104;1.318;2023-05-10T11:15:30;9;9;
47705;PMS5003;33471;52.104;1.318;2023-05-10T11:17:57;7;7;
47705;PMS5003;33471;52.104;1.318;2023-05-10T11:20:27;6;6;
47705;PMS5003;33471;52.104;1.318;2023-05-10T11:22:54;9;7;
47705;PMS5003;33471;52.104;1.318;2023-05-10T11:25:26;6;6;
47705;PMS5003;33471;52.104;1.318;2023-05-10T11:27:54;7;7;
47705;PMS5003;33471;52.104;1.318;2023-05-10T11:30:21;7;7;
47705;PMS5003;33471;52.104;1.318;2023-05-10T11:32:49;7;6;
47705;PMS5003;33471;52.104;1.318;2023-05-10T11:35:16;11;8;
47705;PMS5003;33471;52.104;1.318;2023-05-10T11:37:43;8;8;
47705;PMS5003;33471;52.104;1.318;2023-05-10T11:40:15;7;7;
47705;PMS5003;33471;52.104;1.318;2023-05-10T11:42:42;7;7;
47705;PMS5003;33471;52.104;1.318;2023-05-10T11:45:10;6;6;
47705;PMS5003;33471;52.104;1.318;2023-05-10T11:47:37;7;7;
47705;PMS5003;33471;52.104;1.318;2023-05-10T11:50:05;5;5;
47705;PMS5003;33471;52.104;1.318;2023-05-10T11:52:35;6;6;
47705;PMS5003;33471;52.104;1.318;2023-05-10T11:55:03;5;5;
47705;PMS5003;33471;52.104;1.318;2023-05-10T11:57:31;13;13;
47705;PMS5003;33471;52.104;1.318;2023-05-10T11:59:59;9;8;
47705;PMS5003;33471;52.104;1.318;2023-05-10T12:02:27;10;10;
47705;PMS5003;33471;52.104;1.318;2023-05-10T12:04:55;6;6;
47705;PMS5003;33471;52.104;1.318;2023-05-10T12:07:23;6;6;
47705;PMS5003;33471;52.104;1.318;2023-05-10T12:10:08;5;5;
47705;PMS5003;33471;52.104;1.318;2023-05-10T12:12:37;9;9;
47705;PMS5003;33471;52.104;1.318;2023-05-10T12:15:05;4;4;
47705;PMS5003;33471;52.104;1.318;2023-05-10T12:17:37;5;5;
47705;PMS5003;33471;52.104;1.318;2023-05-10T12:20:21;7;7;
47705;PMS5003;33471;52.104;1.318;2023-05-10T12:22:51;9;8;
47705;PMS5003;33471;52.104;1.318;2023-05-10T12:25:20;7;6;
47705;PMS5003;33471;52.104;1.318;2023-05-10T12:27:49;5;5;
47705;PMS5003;33471;52.104;1.318;2023-05-10T12:30:19;4;4;
47705;PMS5003;33471;52.104;1.318;2023-05-10T12:32:47;4;4;
47705;PMS5003;33471;52.104;1.318;2023-05-10T12:35:15;4;4;
47705;PMS5003;33471;52.104;1.318;2023-05-10T12:37:43;3;3;
47705;PMS5003;33471;52.104;1.318;2023-05-10T12:40:11;4;4;
47705;PMS5003;33471;52.104;1.318;2023-05-10T12:42:39;5;5;
47705;PMS5003;33471;52.104;1.318;2023-05-10T12:45:07;5;5;
47705;PMS5003;33471;52.104;1.318;2023-05-10T12:47:35;5;5;
47705;PMS5003;33471;52.104;1.318;2023-05-10T12:50:03;4;4;
47705;PMS5003;33471;52.104;1.318;2023-05-10T12:52:31;5;5;
47705;PMS5003;33471;52.104;1.318;2023-05-10T12:54:59;4;4;
47705;PMS5003;33471;52.104;1.318;2023-05-10T12:57:26;7;7;
47705;PMS5003;33471;52.104;1.318;2023-05-10T12:59:53;5;5;
47705;PMS5003;33471;52.104;1.318;2023-05-10T13:02:22;5;5;
47705;PMS5003;33471;52.104;1.318;2023-05-10T13:04:49;5;5;
47705;PMS5003;33471;52.104;1.318;2023-05-10T13:07:16;6;6;
47705;PMS5003;33471;52.104;1.318;2023-05-10T13:09:44;4;4;
47705;PMS5003;33471;52.104;1.318;2023-05-10T13:12:10;5;5;
47705;PMS5003;33471;52.104;1.318;2023-05-10T13:14:37;5;5;
47705;PMS5003;33471;52.104;1.318;2023-05-10T13:17:05;3;3;
47705;PMS5003;33471;52.104;1.318;2023-05-10T13:19:32;5;5;
47705;PMS5003;33471;52.104;1.318;2023-05-10T13:21:59;5;4;
47705;PMS5003;33471;52.104;1.318;2023-05-10T13:24:27;6;6;
47705;PMS5003;33471;52.104;1.318;2023-05-10T13:26:54;11;11;
47705;PMS5003;33471;52.104;1.318;2023-05-10T13:29:21;4;4;
47705;PMS5003;33471;52.104;1.318;2023-05-10T13:31:48;2;2;
47705;PMS5003;33471;52.104;1.318;2023-05-10T13:34:17;7;6;
47705;PMS5003;33471;52.104;1.318;2023-05-10T13:36:44;2;2;
47705;PMS5003;33471;52.104;1.318;2023-05-10T13:39:11;8;6;
47705;PMS5003;33471;52.104;1.318;2023-05-10T13:41:38;5;5;
47705;PMS5003;33471;52.104;1.318;2023-05-10T13:44:05;6;6;
47705;PMS5003;33471;52.104;1.318;2023-05-10T13:46:32;7;5;
47705;PMS5003;33471;52.104;1.318;2023-05-10T13:48:59;3;3;
47705;PMS5003;33471;52.104;1.318;2023-05-10T13:51:26;5;5;
47705;PMS5003;33471;52.104;1.318;2023-05-10T13:53:54;5;5;
47705;PMS5003;33471;52.104;1.318;2023-05-10T13:56:21;3;3;
47705;PMS5003;33471;52.104;1.318;2023-05-10T13:58:48;2;2;
47705;PMS5003;33471;52.104;1.318;2023-05-10T14:01:16;1;1;
47705;PMS5003;33471;52.104;1.318;2023-05-10T14:03:43;4;3;
47705;PMS5003;33471;52.104;1.318;2023-05-10T14:06:10;2;2;
47705;PMS5003;33471;52.104;1.318;2023-05-10T14:08:37;3;3;
47705;PMS5003;33471;52.104;1.318;2023-05-10T14:11:04;2;2;
47705;PMS5003;33471;52.104;1.318;2023-05-10T14:13:32;2;2;
47705;PMS5003;33471;52.104;1.318;2023-05-10T14:15:59;4;3;
47705;PMS5003;33471;52.104;1.318;2023-05-10T14:18:26;3;3;
47705;PMS5003;33471;52.104;1.318;2023-05-10T14:20:53;4;2;
47705;PMS5003;33471;52.104;1.318;2023-05-10T14:23:21;4;4;
47705;PMS5003;33471;52.104;1.318;2023-05-10T14:25:49;4;4;
47705;PMS5003;33471;52.104;1.318;2023-05-10T14:28:16;2;2;
47705;PMS5003;33471;52.104;1.318;2023-05-10T14:30:44;3;2;
47705;PMS5003;33471;52.104;1.318;2023-05-10T14:33:11;2;2;
47705;PMS5003;33471;52.104;1.318;2023-05-10T14:35:38;3;3;
47705;PMS5003;33471;52.104;1.318;2023-05-10T14:38:05;2;2;
47705;PMS5003;33471;52.104;1.318;2023-05-10T14:40:32;1;1;
47705;PMS5003;33471;52.104;1.318;2023-05-10T14:42:59;1;1;
47705;PMS5003;33471;52.104;1.318;2023-05-10T14:45:26;1;1;
47705;PMS5003;33471;52.104;1.318;2023-05-10T14:47:54;3;1;
47705;PMS5003;33471;52.104;1.318;2023-05-10T14:50:21;2;2;
47705;PMS5003;33471;52.104;1.318;2023-05-10T14:52:48;0;0;
47705;PMS5003;33471;52.104;1.318;2023-05-10T14:55:16;2;2;
47705;PMS5003;33471;52.104;1.318;2023-05-10T14:57:43;3;3;
47705;PMS5003;33471;52.104;1.318;2023-05-10T15:00:10;1;1;
47705;PMS5003;33471;52.104;1.318;2023-05-10T15:02:39;1;1;
47705;PMS5003;33471;52.104;1.318;2023-05-10T15:05:06;1;1;
47705;PMS5003;33471;52.104;1.318;2023-05-10T15:07:34;1;1;
47705;PMS5003;33471;52.104;1.318;2023-05-10T15:10:02;0;0;
47705;PMS5003;33471;52.104;1.318;2023-05-10T15:12:30;0;0;
47705;PMS5003;33471;52.104;1.318;2023-05-10T15:14:58;1;1;
47705;PMS5003;33471;52.104;1.318;2023-05-10T15:17:25;1;1;
47705;PMS5003;33471;52.104;1.318;2023-05-10T15:19:53;1;1;
47705;PMS5003;33471;52.104;1.318;2023-05-10T15:22:20;1;1;
47705;PMS5003;33471;52.104;1.318;2023-05-10T15:24:48;1;1;
47705;PMS5003;33471;52.104;1.318;2023-05-10T15:27:17;1;1;
47705;PMS5003;33471;52.104;1.318;2023-05-10T15:29:45;4;4;
47705;PMS5003;33471;52.104;1.318;2023-05-10T15:32:12;1;1;
47705;PMS5003;33471;52.104;1.318;2023-05-10T15:34:40;2;2;
47705;PMS5003;33471;52.104;1.318;2023-05-10T15:37:06;1;1;
47705;PMS5003;33471;52.104;1.318;2023-05-10T15:39:34;1;1;
47705;PMS5003;33471;52.104;1.318;2023-05-10T15:42:01;1;1;
47705;PMS5003;33471;52.104;1.318;2023-05-10T15:44:28;1;1;
47705;PMS5003;33471;52.104;1.318;2023-05-10T15:46:55;2;2;
47705;PMS5003;33471;52.104;1.318;2023-05-10T15:49:22;1;1;
47705;PMS5003;33471;52.104;1.318;2023-05-10T15:51:49;1;1;
47705;PMS5003;33471;52.104;1.318;2023-05-10T15:54:16;2;2;
47705;PMS5003;33471;52.104;1.318;2023-05-10T15:56:43;1;1;
47705;PMS5003;33471;52.104;1.318;2023-05-10T15:59:10;2;2;
47705;PMS5003;33471;52.104;1.318;2023-05-10T16:01:37;0;0;
47705;PMS5003;33471;52.104;1.318;2023-05-10T16:04:04;1;1;
47705;PMS5003;33471;52.104;1.318;2023-05-10T16:06:31;2;2;
47705;PMS5003;33471;52.104;1.318;2023-05-10T16:08:58;0;0;
47705;PMS5003;33471;52.104;1.318;2023-05-10T16:11:26;0;0;
47705;PMS5003;33471;52.104;1.318;2023-05-10T16:13:53;1;1;
47705;PMS5003;33471;52.104;1.318;2023-05-10T16:16:20;2;2;
47705;PMS5003;33471;52.104;1.318;2023-05-10T16:18:47;2;2;
47705;PMS5003;33471;52.104;1.318;2023-05-10T16:21:15;1;1;
47705;PMS5003;33471;52.104;1.318;2023-05-10T16:23:42;1;1;
47705;PMS5003;33471;52.104;1.318;2023-05-10T16:26:11;0;0;
47705;PMS5003;33471;52.104;1.318;2023-05-10T16:28:37;1;1;
47705;PMS5003;33471;52.104;1.318;2023-05-10T16:31:05;2;0;
47705;PMS5003;33471;52.104;1.318;2023-05-10T16:33:32;0;0;
47705;PMS5003;33471;52.104;1.318;2023-05-10T16:36:04;1;1;
47705;PMS5003;33471;52.104;1.318;2023-05-10T16:38:31;3;3;
47705;PMS5003;33471;52.104;1.318;2023-05-10T16:41:00;2;2;
47705;PMS5003;33471;52.104;1.318;2023-05-10T16:43:28;2;2;
47705;PMS5003;33471;52.104;1.318;2023-05-10T16:45:55;2;2;
47705;PMS5003;33471;52.104;1.318;2023-05-10T16:48:22;1;1;
47705;PMS5003;33471;52.104;1.318;2023-05-10T16:50:49;1;1;
47705;PMS5003;33471;52.104;1.318;2023-05-10T16:53:16;2;2;